sensor_id;sensor_type;location;lat;lon;timestamp;temperature;humidity
26342;DHT22;14054;50.108;8.640;2022-12-07T00:01:19;4.10;99.90
26342;DHT22;14054;50.108;8.640;2022-12-07T00:03:46;4.10;99.90
26342;DHT22;14054;50.108;8.640;2022-12-07T00:06:13;4.10;99.90
26342;DHT22;14054;50.108;8.640;2022-12-07T00:08:39;4.10;99.90
26342;DHT22;14054;50.108;8.640;2022-12-07T00:11:07;4.10;99.90
26342;DHT22;14054;50.108;8.640;2022-12-07T00:13:33;4.10;99.90
26342;DHT22;14054;50.108;8.640;2022-12-07T00:16:02;4.10;99.90
26342;DHT22;14054;50.108;8.640;2022-12-07T00:18:27;4.10;99.90
26342;DHT22;14054;50.108;8.640;2022-12-07T00:20:53;4.10;99.90
26342;DHT22;14054;50.108;8.640;2022-12-07T00:23:18;4.10;99.90
26342;DHT22;14054;50.108;8.640;2022-12-07T00:25:43;4.10;99.90
26342;DHT22;14054;50.108;8.640;2022-12-07T00:28:09;4.10;99.90
26342;DHT22;14054;50.108;8.640;2022-12-07T00:30:36;4.10;99.90
26342;DHT22;14054;50.108;8.640;2022-12-07T00:33:01;4.10;99.90
26342;DHT22;14054;50.108;8.640;2022-12-07T00:35:27;4.10;99.90
26342;DHT22;14054;50.108;8.640;2022-12-07T00:37:52;4.10;99.90
26342;DHT22;14054;50.108;8.640;2022-12-07T00:40:17;4.10;99.90
26342;DHT22;14054;50.108;8.640;2022-12-07T00:42:43;4.00;99.90
26342;DHT22;14054;50.108;8.640;2022-12-07T00:45:09;4.00;99.90
26342;DHT22;14054;50.108;8.640;2022-12-07T00:47:34;4.00;99.90
26342;DHT22;14054;50.108;8.640;2022-12-07T00:49:59;4.10;99.90
26342;DHT22;14054;50.108;8.640;2022-12-07T00:52:25;4.10;99.90
26342;DHT22;14054;50.108;8.640;2022-12-07T00:54:50;4.10;99.90
26342;DHT22;14054;50.108;8.640;2022-12-07T00:57:16;4.10;99.90
26342;DHT22;14054;50.108;8.640;2022-12-07T00:59:41;4.10;99.90
26342;DHT22;14054;50.108;8.640;2022-12-07T01:02:07;4.10;99.90
26342;DHT22;14054;50.108;8.640;2022-12-07T01:04:34;4.00;99.90
26342;DHT22;14054;50.108;8.640;2022-12-07T01:06:59;4.00;99.90
26342;DHT22;14054;50.108;8.640;2022-12-07T01:09:25;4.00;99.90
26342;DHT22;14054;50.108;8.640;2022-12-07T01:11:50;4.00;99.90
26342;DHT22;14054;50.108;8.640;2022-12-07T01:14:16;4.00;99.90
26342;DHT22;14054;50.108;8.640;2022-12-07T01:16:41;4.00;99.90
26342;DHT22;14054;50.108;8.640;2022-12-07T01:19:07;4.00;99.90
26342;DHT22;14054;50.108;8.640;2022-12-07T01:21:33;3.90;99.90
26342;DHT22;14054;50.108;8.640;2022-12-07T01:24:07;3.90;99.90
26342;DHT22;14054;50.108;8.640;2022-12-07T01:26:33;3.90;99.90
26342;DHT22;14054;50.108;8.640;2022-12-07T01:28:58;3.90;99.90
26342;DHT22;14054;50.108;8.640;2022-12-07T01:31:27;3.90;99.90
26342;DHT22;14054;50.108;8.640;2022-12-07T01:33:55;3.80;99.90
26342;DHT22;14054;50.108;8.640;2022-12-07T01:36:26;3.80;99.90
26342;DHT22;14054;50.108;8.640;2022-12-07T01:38:55;3.80;99.90
26342;DHT22;14054;50.108;8.640;2022-12-07T01:41:22;3.80;99.90
26342;DHT22;14054;50.108;8.640;2022-12-07T01:44:12;3.80;99.90
26342;DHT22;14054;50.108;8.640;2022-12-07T01:46:38;3.80;99.90
26342;DHT22;14054;50.108;8.640;2022-12-07T01:49:07;3.80;99.90
26342;DHT22;14054;50.108;8.640;2022-12-07T01:51:34;3.80;99.90
26342;DHT22;14054;50.108;8.640;2022-12-07T01:54:01;3.80;99.90
26342;DHT22;14054;50.108;8.640;2022-12-07T01:56:27;3.80;99.90
26342;DHT22;14054;50.108;8.640;2022-12-07T01:58:54;3.90;99.90
26342;DHT22;14054;50.108;8.640;2022-12-07T02:01:21;3.80;99.90
26342;DHT22;14054;50.108;8.640;2022-12-07T02:03:47;3.80;99.90
26342;DHT22;14054;50.108;8.640;2022-12-07T02:06:16;3.90;99.90
26342;DHT22;14054;50.108;8.640;2022-12-07T02:08:44;3.90;99.90
26342;DHT22;14054;50.108;8.640;2022-12-07T02:11:10;3.80;99.90
26342;DHT22;14054;50.108;8.640;2022-12-07T02:13:38;3.90;99.90
26342;DHT22;14054;50.108;8.640;2022-12-07T02:16:54;3.80;99.90
26342;DHT22;14054;50.108;8.640;2022-12-07T02:22:17;3.80;99.90
26342;DHT22;14054;50.108;8.640;2022-12-07T02:24:57;3.80;99.90
26342;DHT22;14054;50.108;8.640;2022-12-07T02:27:38;3.80;99.90
26342;DHT22;14054;50.108;8.640;2022-12-07T02:30:10;3.80;99.90
26342;DHT22;14054;50.108;8.640;2022-12-07T02:35:06;3.80;99.90
26342;DHT22;14054;50.108;8.640;2022-12-07T02:37:53;3.80;99.90
26342;DHT22;14054;50.108;8.640;2022-12-07T02:40:40;3.80;99.90
26342;DHT22;14054;50.108;8.640;2022-12-07T02:43:18;3.80;99.90
26342;DHT22;14054;50.108;8.640;2022-12-07T02:45:45;3.80;99.90
26342;DHT22;14054;50.108;8.640;2022-12-07T02:48:14;3.70;99.90
26342;DHT22;14054;50.108;8.640;2022-12-07T02:50:52;3.70;99.90
26342;DHT22;14054;50.108;8.640;2022-12-07T02:53:37;3.70;99.90
26342;DHT22;14054;50.108;8.640;2022-12-07T02:59:01;3.70;99.90
26342;DHT22;14054;50.108;8.640;2022-12-07T03:04:42;3.80;99.90
26342;DHT22;14054;50.108;8.640;2022-12-07T03:13:02;3.70;99.90
26342;DHT22;14054;50.108;8.640;2022-12-07T03:15:57;3.70;99.90
26342;DHT22;14054;50.108;8.640;2022-12-07T03:18:25;3.70;99.90
26342;DHT22;14054;50.108;8.640;2022-12-07T03:20:56;3.70;99.90
26342;DHT22;14054;50.108;8.640;2022-12-07T03:23:23;3.70;99.90
26342;DHT22;14054;50.108;8.640;2022-12-07T03:25:55;3.70;99.90
26342;DHT22;14054;50.108;8.640;2022-12-07T03:28:24;3.70;99.90
26342;DHT22;14054;50.108;8.640;2022-12-07T03:31:02;3.70;99.90
26342;DHT22;14054;50.108;8.640;2022-12-07T03:33:51;3.70;99.90
26342;DHT22;14054;50.108;8.640;2022-12-07T03:36:29;3.70;99.90
26342;DHT22;14054;50.108;8.640;2022-12-07T03:41:34;3.70;99.90
26342;DHT22;14054;50.108;8.640;2022-12-07T03:44:01;3.70;99.90
26342;DHT22;14054;50.108;8.640;2022-12-07T03:46:47;3.70;99.90
26342;DHT22;14054;50.108;8.640;2022-12-07T03:49:27;3.70;99.90
26342;DHT22;14054;50.108;8.640;2022-12-07T03:54:33;3.70;99.90
26342;DHT22;14054;50.108;8.640;2022-12-07T03:57:00;3.70;99.90
26342;DHT22;14054;50.108;8.640;2022-12-07T03:59:27;3.70;99.90
26342;DHT22;14054;50.108;8.640;2022-12-07T04:01:56;3.70;99.90
26342;DHT22;14054;50.108;8.640;2022-12-07T04:04:23;3.70;99.90
26342;DHT22;14054;50.108;8.640;2022-12-07T04:06:50;3.70;99.90
26342;DHT22;14054;50.108;8.640;2022-12-07T04:09:16;3.70;99.90
26342;DHT22;14054;50.108;8.640;2022-12-07T04:11:42;3.70;99.90
26342;DHT22;14054;50.108;8.640;2022-12-07T04:14:07;3.70;99.90
26342;DHT22;14054;50.108;8.640;2022-12-07T04:16:54;3.80;99.90
26342;DHT22;14054;50.108;8.640;2022-12-07T04:19:24;3.80;99.90
26342;DHT22;14054;50.108;8.640;2022-12-07T04:21:50;3.80;99.90
26342;DHT22;14054;50.108;8.640;2022-12-07T04:24:16;3.80;99.90
26342;DHT22;14054;50.108;8.640;2022-12-07T04:26:42;3.80;99.90
26342;DHT22;14054;50.108;8.640;2022-12-07T04:29:09;3.80;99.90
26342;DHT22;14054;50.108;8.640;2022-12-07T04:31:35;3.80;99.90
26342;DHT22;14054;50.108;8.640;2022-12-07T04:34:00;3.80;99.90
26342;DHT22;14054;50.108;8.640;2022-12-07T04:36:26;3.80;99.90
26342;DHT22;14054;50.108;8.640;2022-12-07T04:38:53;3.80;99.90
26342;DHT22;14054;50.108;8.640;2022-12-07T04:41:19;3.80;99.90
26342;DHT22;14054;50.108;8.640;2022-12-07T04:44:02;3.80;99.90
26342;DHT22;14054;50.108;8.640;2022-12-07T04:46:30;3.80;99.90
26342;DHT22;14054;50.108;8.640;2022-12-07T04:48:56;3.80;99.90
26342;DHT22;14054;50.108;8.640;2022-12-07T04:51:25;3.90;99.90
26342;DHT22;14054;50.108;8.640;2022-12-07T04:53:51;3.90;99.90
26342;DHT22;14054;50.108;8.640;2022-12-07T04:56:17;3.90;99.90
26342;DHT22;14054;50.108;8.640;2022-12-07T04:58:44;3.90;99.90
26342;DHT22;14054;50.108;8.640;2022-12-07T05:01:11;3.90;99.90
26342;DHT22;14054;50.108;8.640;2022-12-07T05:03:37;4.00;99.90
26342;DHT22;14054;50.108;8.640;2022-12-07T05:06:03;3.90;99.90
26342;DHT22;14054;50.108;8.640;2022-12-07T05:08:29;3.90;99.90
26342;DHT22;14054;50.108;8.640;2022-12-07T05:10:54;3.90;99.90
26342;DHT22;14054;50.108;8.640;2022-12-07T05:13:20;4.00;99.90
26342;DHT22;14054;50.108;8.640;2022-12-07T05:15:49;4.00;99.90
26342;DHT22;14054;50.108;8.640;2022-12-07T05:18:15;4.00;99.90
26342;DHT22;14054;50.108;8.640;2022-12-07T05:20:41;4.00;99.90
26342;DHT22;14054;50.108;8.640;2022-12-07T05:23:07;4.00;99.90
26342;DHT22;14054;50.108;8.640;2022-12-07T05:25:33;4.00;99.90
26342;DHT22;14054;50.108;8.640;2022-12-07T05:27:58;4.00;99.90
26342;DHT22;14054;50.108;8.640;2022-12-07T05:30:24;4.00;99.90
26342;DHT22;14054;50.108;8.640;2022-12-07T05:32:50;4.00;99.90
26342;DHT22;14054;50.108;8.640;2022-12-07T05:35:17;4.00;99.90
26342;DHT22;14054;50.108;8.640;2022-12-07T05:37:43;4.00;99.90
26342;DHT22;14054;50.108;8.640;2022-12-07T05:40:09;4.10;99.90
26342;DHT22;14054;50.108;8.640;2022-12-07T05:42:35;4.10;99.90
26342;DHT22;14054;50.108;8.640;2022-12-07T05:45:00;4.10;99.90
26342;DHT22;14054;50.108;8.640;2022-12-07T05:47:26;4.10;99.90
26342;DHT22;14054;50.108;8.640;2022-12-07T05:49:51;4.10;99.90
26342;DHT22;14054;50.108;8.640;2022-12-07T05:52:17;4.20;99.90
26342;DHT22;14054;50.108;8.640;2022-12-07T05:54:43;4.20;99.90
26342;DHT22;14054;50.108;8.640;2022-12-07T05:57:08;4.20;99.90
26342;DHT22;14054;50.108;8.640;2022-12-07T05:59:34;4.20;99.90
26342;DHT22;14054;50.108;8.640;2022-12-07T06:02:01;4.20;99.90
26342;DHT22;14054;50.108;8.640;2022-12-07T06:04:29;4.20;99.90
26342;DHT22;14054;50.108;8.640;2022-12-07T06:06:55;4.20;99.90
26342;DHT22;14054;50.108;8.640;2022-12-07T06:09:22;4.30;99.90
26342;DHT22;14054;50.108;8.640;2022-12-07T06:11:48;4.30;99.90
26342;DHT22;14054;50.108;8.640;2022-12-07T06:14:32;4.30;99.90
26342;DHT22;14054;50.108;8.640;2022-12-07T06:16:58;4.30;99.90
26342;DHT22;14054;50.108;8.640;2022-12-07T06:19:24;4.30;99.90
26342;DHT22;14054;50.108;8.640;2022-12-07T06:21:49;4.30;99.90
26342;DHT22;14054;50.108;8.640;2022-12-07T06:24:16;4.30;99.90
26342;DHT22;14054;50.108;8.640;2022-12-07T06:26:42;4.30;99.90
26342;DHT22;14054;50.108;8.640;2022-12-07T06:29:08;4.30;99.90
26342;DHT22;14054;50.108;8.640;2022-12-07T06:31:35;4.30;99.90
26342;DHT22;14054;50.108;8.640;2022-12-07T06:34:03;4.30;99.90
26342;DHT22;14054;50.108;8.640;2022-12-07T06:36:29;4.30;99.90
26342;DHT22;14054;50.108;8.640;2022-12-07T06:38:54;4.40;99.90
26342;DHT22;14054;50.108;8.640;2022-12-07T06:41:20;4.40;99.90
26342;DHT22;14054;50.108;8.640;2022-12-07T06:43:46;4.30;99.90
26342;DHT22;14054;50.108;8.640;2022-12-07T06:46:11;4.30;99.90
26342;DHT22;14054;50.108;8.640;2022-12-07T06:48:37;4.40;99.90
26342;DHT22;14054;50.108;8.640;2022-12-07T06:51:02;4.30;99.90
26342;DHT22;14054;50.108;8.640;2022-12-07T06:53:28;4.30;99.90
26342;DHT22;14054;50.108;8.640;2022-12-07T06:55:53;4.30;99.90
26342;DHT22;14054;50.108;8.640;2022-12-07T06:58:19;4.30;99.90
26342;DHT22;14054;50.108;8.640;2022-12-07T07:00:45;4.30;99.90
26342;DHT22;14054;50.108;8.640;2022-12-07T07:03:10;4.30;99.90
26342;DHT22;14054;50.108;8.640;2022-12-07T07:05:36;4.30;99.90
26342;DHT22;14054;50.108;8.640;2022-12-07T07:08:02;4.40;99.90
26342;DHT22;14054;50.108;8.640;2022-12-07T07:10:28;4.40;99.90
26342;DHT22;14054;50.108;8.640;2022-12-07T07:12:53;4.40;99.90
26342;DHT22;14054;50.108;8.640;2022-12-07T07:15:19;4.40;99.90
26342;DHT22;14054;50.108;8.640;2022-12-07T07:17:44;4.40;99.90
26342;DHT22;14054;50.108;8.640;2022-12-07T07:20:10;4.50;99.90
26342;DHT22;14054;50.108;8.640;2022-12-07T07:22:36;4.50;99.90
26342;DHT22;14054;50.108;8.640;2022-12-07T07:25:02;4.50;99.90
26342;DHT22;14054;50.108;8.640;2022-12-07T07:27:27;4.50;99.90
26342;DHT22;14054;50.108;8.640;2022-12-07T07:29:53;4.60;99.90
26342;DHT22;14054;50.108;8.640;2022-12-07T07:32:18;4.60;99.90
26342;DHT22;14054;50.108;8.640;2022-12-07T07:34:44;4.60;99.90
26342;DHT22;14054;50.108;8.640;2022-12-07T07:37:10;4.60;99.90
26342;DHT22;14054;50.108;8.640;2022-12-07T07:39:37;4.60;99.90
26342;DHT22;14054;50.108;8.640;2022-12-07T07:42:03;4.60;99.90
26342;DHT22;14054;50.108;8.640;2022-12-07T07:44:29;4.60;99.90
26342;DHT22;14054;50.108;8.640;2022-12-07T07:46:54;4.60;99.90
26342;DHT22;14054;50.108;8.640;2022-12-07T07:49:20;4.60;99.90
26342;DHT22;14054;50.108;8.640;2022-12-07T07:51:45;4.50;99.90
26342;DHT22;14054;50.108;8.640;2022-12-07T07:54:11;4.50;99.90
26342;DHT22;14054;50.108;8.640;2022-12-07T07:56:36;4.50;99.90
26342;DHT22;14054;50.108;8.640;2022-12-07T07:59:02;4.50;99.90
26342;DHT22;14054;50.108;8.640;2022-12-07T08:01:28;4.40;99.90
26342;DHT22;14054;50.108;8.640;2022-12-07T08:03:53;4.50;99.90
26342;DHT22;14054;50.108;8.640;2022-12-07T08:06:19;4.50;99.90
26342;DHT22;14054;50.108;8.640;2022-12-07T08:08:45;4.50;99.90
26342;DHT22;14054;50.108;8.640;2022-12-07T08:11:10;4.50;99.90
26342;DHT22;14054;50.108;8.640;2022-12-07T08:13:36;4.50;99.90
26342;DHT22;14054;50.108;8.640;2022-12-07T08:16:09;4.50;99.90
26342;DHT22;14054;50.108;8.640;2022-12-07T08:18:36;4.50;99.90
26342;DHT22;14054;50.108;8.640;2022-12-07T08:21:03;4.60;99.90
26342;DHT22;14054;50.108;8.640;2022-12-07T08:23:29;4.50;99.90
26342;DHT22;14054;50.108;8.640;2022-12-07T08:25:55;4.50;99.90
26342;DHT22;14054;50.108;8.640;2022-12-07T08:28:20;4.70;99.90
26342;DHT22;14054;50.108;8.640;2022-12-07T08:30:46;4.90;99.90
26342;DHT22;14054;50.108;8.640;2022-12-07T08:33:12;5.10;99.90
26342;DHT22;14054;50.108;8.640;2022-12-07T08:35:37;5.30;99.90
26342;DHT22;14054;50.108;8.640;2022-12-07T08:38:03;5.40;99.90
26342;DHT22;14054;50.108;8.640;2022-12-07T08:40:29;5.50;99.90
26342;DHT22;14054;50.108;8.640;2022-12-07T08:42:54;5.70;99.90
26342;DHT22;14054;50.108;8.640;2022-12-07T08:45:21;5.80;99.90
26342;DHT22;14054;50.108;8.640;2022-12-07T08:47:55;5.90;99.90
26342;DHT22;14054;50.108;8.640;2022-12-07T08:50:21;5.70;99.90
26342;DHT22;14054;50.108;8.640;2022-12-07T08:52:53;5.60;99.90
26342;DHT22;14054;50.108;8.640;2022-12-07T08:55:19;5.50;99.90
26342;DHT22;14054;50.108;8.640;2022-12-07T08:57:45;5.40;99.90
26342;DHT22;14054;50.108;8.640;2022-12-07T09:00:11;5.40;99.90
26342;DHT22;14054;50.108;8.640;2022-12-07T09:02:37;5.30;99.90
26342;DHT22;14054;50.108;8.640;2022-12-07T09:05:03;5.20;99.90
26342;DHT22;14054;50.108;8.640;2022-12-07T09:07:30;5.10;99.90
26342;DHT22;14054;50.108;8.640;2022-12-07T09:09:57;5.00;99.90
26342;DHT22;14054;50.108;8.640;2022-12-07T09:12:23;5.00;99.90
26342;DHT22;14054;50.108;8.640;2022-12-07T09:14:48;5.00;99.90
26342;DHT22;14054;50.108;8.640;2022-12-07T09:17:14;5.30;99.90
26342;DHT22;14054;50.108;8.640;2022-12-07T09:19:39;5.60;99.90
26342;DHT22;14054;50.108;8.640;2022-12-07T09:22:06;5.70;99.90
26342;DHT22;14054;50.108;8.640;2022-12-07T09:24:32;5.70;99.90
26342;DHT22;14054;50.108;8.640;2022-12-07T09:26:58;5.60;99.90
26342;DHT22;14054;50.108;8.640;2022-12-07T09:29:24;5.80;99.90
26342;DHT22;14054;50.108;8.640;2022-12-07T09:31:51;6.00;99.90
26342;DHT22;14054;50.108;8.640;2022-12-07T09:34:16;6.00;99.90
26342;DHT22;14054;50.108;8.640;2022-12-07T09:36:42;6.40;99.90
26342;DHT22;14054;50.108;8.640;2022-12-07T09:39:08;6.30;99.90
26342;DHT22;14054;50.108;8.640;2022-12-07T09:41:38;6.30;99.90
26342;DHT22;14054;50.108;8.640;2022-12-07T09:44:09;6.10;99.90
26342;DHT22;14054;50.108;8.640;2022-12-07T09:46:38;6.00;99.90
26342;DHT22;14054;50.108;8.640;2022-12-07T09:49:05;5.90;99.90
26342;DHT22;14054;50.108;8.640;2022-12-07T09:51:31;6.00;99.90
26342;DHT22;14054;50.108;8.640;2022-12-07T09:53:58;6.10;99.90
26342;DHT22;14054;50.108;8.640;2022-12-07T09:56:24;6.10;99.90
26342;DHT22;14054;50.108;8.640;2022-12-07T09:58:54;6.10;99.90
26342;DHT22;14054;50.108;8.640;2022-12-07T10:01:23;6.30;99.90
26342;DHT22;14054;50.108;8.640;2022-12-07T10:03:54;6.50;99.90
26342;DHT22;14054;50.108;8.640;2022-12-07T10:06:20;6.90;99.90
26342;DHT22;14054;50.108;8.640;2022-12-07T10:08:46;6.90;99.90
26342;DHT22;14054;50.108;8.640;2022-12-07T10:11:12;6.90;99.90
26342;DHT22;14054;50.108;8.640;2022-12-07T10:13:42;6.70;99.90
26342;DHT22;14054;50.108;8.640;2022-12-07T10:16:32;6.70;99.90
26342;DHT22;14054;50.108;8.640;2022-12-07T10:19:25;6.70;99.90
26342;DHT22;14054;50.108;8.640;2022-12-07T10:24:27;7.30;99.90
26342;DHT22;14054;50.108;8.640;2022-12-07T10:26:53;7.50;99.90
26342;DHT22;14054;50.108;8.640;2022-12-07T10:29:23;7.60;99.90
26342;DHT22;14054;50.108;8.640;2022-12-07T10:34:41;7.20;99.90
26342;DHT22;14054;50.108;8.640;2022-12-07T10:39:43;7.10;99.90
26342;DHT22;14054;50.108;8.640;2022-12-07T10:42:27;7.10;99.90
26342;DHT22;14054;50.108;8.640;2022-12-07T10:50:34;7.40;99.90
26342;DHT22;14054;50.108;8.640;2022-12-07T10:53:42;7.50;99.90
26342;DHT22;14054;50.108;8.640;2022-12-07T10:56:20;7.60;99.90
26342;DHT22;14054;50.108;8.640;2022-12-07T10:59:13;7.60;99.90
26342;DHT22;14054;50.108;8.640;2022-12-07T11:04:24;7.50;99.90
26342;DHT22;14054;50.108;8.640;2022-12-07T11:07:06;8.60;99.90
26342;DHT22;14054;50.108;8.640;2022-12-07T11:18:19;7.60;99.90
26342;DHT22;14054;50.108;8.640;2022-12-07T11:21:06;7.40;99.90
26342;DHT22;14054;50.108;8.640;2022-12-07T11:32:31;7.00;99.90
26342;DHT22;14054;50.108;8.640;2022-12-07T11:35:24;7.10;99.90
26342;DHT22;14054;50.108;8.640;2022-12-07T11:38:00;7.10;99.90
26342;DHT22;14054;50.108;8.640;2022-12-07T11:40:30;7.00;99.90
26342;DHT22;14054;50.108;8.640;2022-12-07T11:45:33;7.10;99.90
26342;DHT22;14054;50.108;8.640;2022-12-07T11:48:06;7.30;99.90
26342;DHT22;14054;50.108;8.640;2022-12-07T11:50:40;7.50;99.90
26342;DHT22;14054;50.108;8.640;2022-12-07T11:58:23;7.30;99.90
26342;DHT22;14054;50.108;8.640;2022-12-07T12:01:14;7.20;99.90
26342;DHT22;14054;50.108;8.640;2022-12-07T12:03:56;7.10;99.90
26342;DHT22;14054;50.108;8.640;2022-12-07T12:06:23;7.30;99.90
26342;DHT22;14054;50.108;8.640;2022-12-07T12:09:15;7.50;99.90
26342;DHT22;14054;50.108;8.640;2022-12-07T12:12:01;7.60;99.90
26342;DHT22;14054;50.108;8.640;2022-12-07T12:14:48;7.60;99.90
26342;DHT22;14054;50.108;8.640;2022-12-07T12:20:04;7.50;99.90
26342;DHT22;14054;50.108;8.640;2022-12-07T12:22:38;7.50;99.90
26342;DHT22;14054;50.108;8.640;2022-12-07T12:25:15;7.40;99.90
26342;DHT22;14054;50.108;8.640;2022-12-07T12:27:46;7.40;99.90
26342;DHT22;14054;50.108;8.640;2022-12-07T12:30:35;7.40;99.90
26342;DHT22;14054;50.108;8.640;2022-12-07T12:35:36;7.30;99.90
26342;DHT22;14054;50.108;8.640;2022-12-07T12:40:50;7.40;99.90
26342;DHT22;14054;50.108;8.640;2022-12-07T12:43:42;7.50;99.90
26342;DHT22;14054;50.108;8.640;2022-12-07T12:52:00;8.50;99.90
26342;DHT22;14054;50.108;8.640;2022-12-07T12:54:31;8.40;99.90
26342;DHT22;14054;50.108;8.640;2022-12-07T13:07:49;7.60;99.90
26342;DHT22;14054;50.108;8.640;2022-12-07T13:15:41;8.90;99.90
26342;DHT22;14054;50.108;8.640;2022-12-07T13:26:38;8.50;99.90
26342;DHT22;14054;50.108;8.640;2022-12-07T13:29:20;8.50;99.90
26342;DHT22;14054;50.108;8.640;2022-12-07T13:31:51;8.00;99.90
26342;DHT22;14054;50.108;8.640;2022-12-07T13:34:34;7.70;99.90
26342;DHT22;14054;50.108;8.640;2022-12-07T13:37:27;7.20;99.90
26342;DHT22;14054;50.108;8.640;2022-12-07T13:39:55;7.00;99.90
26342;DHT22;14054;50.108;8.640;2022-12-07T13:42:32;6.60;99.90
26342;DHT22;14054;50.108;8.640;2022-12-07T13:45:00;6.50;99.90
26342;DHT22;14054;50.108;8.640;2022-12-07T13:47:44;6.50;99.90
26342;DHT22;14054;50.108;8.640;2022-12-07T13:50:25;6.70;99.90
26342;DHT22;14054;50.108;8.640;2022-12-07T13:52:55;6.80;99.90
26342;DHT22;14054;50.108;8.640;2022-12-07T13:55:21;6.70;99.90
26342;DHT22;14054;50.108;8.640;2022-12-07T13:57:50;6.70;99.90
26342;DHT22;14054;50.108;8.640;2022-12-07T14:00:19;6.70;99.90
26342;DHT22;14054;50.108;8.640;2022-12-07T14:02:57;6.70;99.90
26342;DHT22;14054;50.108;8.640;2022-12-07T14:05:26;6.70;99.90
26342;DHT22;14054;50.108;8.640;2022-12-07T14:08:20;6.70;99.90
26342;DHT22;14054;50.108;8.640;2022-12-07T14:13:35;6.40;99.90
26342;DHT22;14054;50.108;8.640;2022-12-07T14:16:03;6.40;99.90
26342;DHT22;14054;50.108;8.640;2022-12-07T14:18:40;6.40;99.90
26342;DHT22;14054;50.108;8.640;2022-12-07T14:23:40;6.20;99.90
26342;DHT22;14054;50.108;8.640;2022-12-07T14:26:14;6.20;99.90
26342;DHT22;14054;50.108;8.640;2022-12-07T14:28:41;6.20;99.90
26342;DHT22;14054;50.108;8.640;2022-12-07T14:31:13;6.20;99.90
26342;DHT22;14054;50.108;8.640;2022-12-07T14:33:39;6.10;99.90
26342;DHT22;14054;50.108;8.640;2022-12-07T14:36:05;6.10;99.90
26342;DHT22;14054;50.108;8.640;2022-12-07T14:38:31;6.10;99.90
26342;DHT22;14054;50.108;8.640;2022-12-07T14:40:56;6.10;99.90
26342;DHT22;14054;50.108;8.640;2022-12-07T14:43:42;6.00;99.90
26342;DHT22;14054;50.108;8.640;2022-12-07T14:46:09;5.90;99.90
26342;DHT22;14054;50.108;8.640;2022-12-07T14:48:34;5.80;99.90
26342;DHT22;14054;50.108;8.640;2022-12-07T14:51:00;5.70;99.90
26342;DHT22;14054;50.108;8.640;2022-12-07T14:53:30;5.60;99.90
26342;DHT22;14054;50.108;8.640;2022-12-07T14:55:56;5.50;99.90
26342;DHT22;14054;50.108;8.640;2022-12-07T14:58:22;5.40;99.90
26342;DHT22;14054;50.108;8.640;2022-12-07T15:00:48;5.30;99.90
26342;DHT22;14054;50.108;8.640;2022-12-07T15:03:14;5.10;99.90
26342;DHT22;14054;50.108;8.640;2022-12-07T15:05:43;5.00;99.90
26342;DHT22;14054;50.108;8.640;2022-12-07T15:08:11;4.90;99.90
26342;DHT22;14054;50.108;8.640;2022-12-07T15:10:37;4.90;99.90
26342;DHT22;14054;50.108;8.640;2022-12-07T15:13:04;4.90;99.90
26342;DHT22;14054;50.108;8.640;2022-12-07T15:15:50;4.90;99.90
26342;DHT22;14054;50.108;8.640;2022-12-07T15:18:16;4.90;99.90
26342;DHT22;14054;50.108;8.640;2022-12-07T15:20:42;4.90;99.90
26342;DHT22;14054;50.108;8.640;2022-12-07T15:23:08;4.90;99.90
26342;DHT22;14054;50.108;8.640;2022-12-07T15:25:33;4.90;99.90
26342;DHT22;14054;50.108;8.640;2022-12-07T15:27:59;4.80;99.90
26342;DHT22;14054;50.108;8.640;2022-12-07T15:30:24;4.80;99.90
26342;DHT22;14054;50.108;8.640;2022-12-07T15:32:51;4.90;99.90
26342;DHT22;14054;50.108;8.640;2022-12-07T15:35:16;4.80;99.90
26342;DHT22;14054;50.108;8.640;2022-12-07T15:37:42;4.80;99.90
26342;DHT22;14054;50.108;8.640;2022-12-07T15:40:08;4.90;99.90
26342;DHT22;14054;50.108;8.640;2022-12-07T15:42:35;4.80;99.90
26342;DHT22;14054;50.108;8.640;2022-12-07T15:45:01;4.80;99.90
26342;DHT22;14054;50.108;8.640;2022-12-07T15:47:31;4.90;99.90
26342;DHT22;14054;50.108;8.640;2022-12-07T15:49:56;4.90;99.90
26342;DHT22;14054;50.108;8.640;2022-12-07T15:52:22;4.90;99.90
26342;DHT22;14054;50.108;8.640;2022-12-07T15:54:47;4.90;99.90
26342;DHT22;14054;50.108;8.640;2022-12-07T15:57:13;4.90;99.90
26342;DHT22;14054;50.108;8.640;2022-12-07T15:59:39;5.00;99.90
26342;DHT22;14054;50.108;8.640;2022-12-07T16:02:04;4.90;99.90
26342;DHT22;14054;50.108;8.640;2022-12-07T16:04:30;4.90;99.90
26342;DHT22;14054;50.108;8.640;2022-12-07T16:06:55;4.90;99.90
26342;DHT22;14054;50.108;8.640;2022-12-07T16:09:21;4.90;99.90
26342;DHT22;14054;50.108;8.640;2022-12-07T16:11:47;4.90;99.90
26342;DHT22;14054;50.108;8.640;2022-12-07T16:14:13;4.90;99.90
26342;DHT22;14054;50.108;8.640;2022-12-07T16:16:38;5.00;99.90
26342;DHT22;14054;50.108;8.640;2022-12-07T16:19:05;5.00;99.90
26342;DHT22;14054;50.108;8.640;2022-12-07T16:21:31;5.00;99.90
26342;DHT22;14054;50.108;8.640;2022-12-07T16:23:57;5.00;99.90
26342;DHT22;14054;50.108;8.640;2022-12-07T16:26:23;5.00;99.90
26342;DHT22;14054;50.108;8.640;2022-12-07T16:28:50;5.00;99.90
26342;DHT22;14054;50.108;8.640;2022-12-07T16:31:20;5.00;99.90
26342;DHT22;14054;50.108;8.640;2022-12-07T16:33:46;5.00;99.90
26342;DHT22;14054;50.108;8.640;2022-12-07T16:36:13;5.00;99.90
26342;DHT22;14054;50.108;8.640;2022-12-07T16:38:41;5.00;99.90
26342;DHT22;14054;50.108;8.640;2022-12-07T16:41:08;5.00;99.90
26342;DHT22;14054;50.108;8.640;2022-12-07T16:43:34;5.00;99.90
26342;DHT22;14054;50.108;8.640;2022-12-07T16:46:00;5.00;99.90
26342;DHT22;14054;50.108;8.640;2022-12-07T16:48:25;5.00;99.90
26342;DHT22;14054;50.108;8.640;2022-12-07T16:50:51;5.00;99.90
26342;DHT22;14054;50.108;8.640;2022-12-07T16:53:19;5.10;99.90
26342;DHT22;14054;50.108;8.640;2022-12-07T16:55:45;5.10;99.90
26342;DHT22;14054;50.108;8.640;2022-12-07T16:58:12;5.00;99.90
26342;DHT22;14054;50.108;8.640;2022-12-07T17:00:39;5.10;99.90
26342;DHT22;14054;50.108;8.640;2022-12-07T17:03:05;5.10;99.90
26342;DHT22;14054;50.108;8.640;2022-12-07T17:05:30;5.00;99.90
26342;DHT22;14054;50.108;8.640;2022-12-07T17:07:57;5.00;99.90
26342;DHT22;14054;50.108;8.640;2022-12-07T17:10:23;5.00;99.90
26342;DHT22;14054;50.108;8.640;2022-12-07T17:12:49;4.90;99.90
26342;DHT22;14054;50.108;8.640;2022-12-07T17:15:15;4.80;99.90
26342;DHT22;14054;50.108;8.640;2022-12-07T17:17:51;4.80;99.90
26342;DHT22;14054;50.108;8.640;2022-12-07T17:20:18;4.80;99.90
26342;DHT22;14054;50.108;8.640;2022-12-07T17:22:44;4.80;99.90
26342;DHT22;14054;50.108;8.640;2022-12-07T17:25:10;4.80;99.90
26342;DHT22;14054;50.108;8.640;2022-12-07T17:27:35;4.80;99.90
26342;DHT22;14054;50.108;8.640;2022-12-07T17:30:03;4.80;99.90
26342;DHT22;14054;50.108;8.640;2022-12-07T17:32:29;4.80;99.90
26342;DHT22;14054;50.108;8.640;2022-12-07T17:34:54;4.80;99.90
26342;DHT22;14054;50.108;8.640;2022-12-07T17:37:20;4.80;99.90
26342;DHT22;14054;50.108;8.640;2022-12-07T17:39:45;4.80;99.90
26342;DHT22;14054;50.108;8.640;2022-12-07T17:42:11;4.80;99.90
26342;DHT22;14054;50.108;8.640;2022-12-07T17:45:04;4.80;99.90